Time;durP1;ratioP1;P1;durP2;ratioP2;P2;SDS_P1;SDS_P2;PMS_P1;PMS_P2;Temp;Humidity;BMP_temperature;BMP_pressure;BME280_temperature;BME280_humidity;BME280_pressure;Samples;Min_cycle;Max_cycle;Signal;HPM_P1;HPM_P2
2022/07/31 00:02:19;;;;;;;1.58;0.40;;;;;;;23.49;40.81;101714.31;16143097;19;129470;-59
2022/07/31 00:07:42;;;;;;;0.75;0.30;;;;;;;23.49;40.75;101719.09;16142463;19;129612;-60
2022/07/31 00:13:03;;;;;;;0.60;0.30;;;;;;;23.49;40.95;101727.47;16146070;19;129760;-60
2022/07/31 00:18:25;;;;;;;1.05;0.52;;;;;;;23.49;40.95;101716.28;16145004;19;129137;-60
2022/07/31 00:23:47;;;;;;;0.30;0.30;;;;;;;23.48;41.09;101722.97;16139370;19;131778;-59
2022/07/31 00:29:09;;;;;;;0.70;0.30;;;;;;;23.48;40.85;101709.03;16137431;19;131431;-60
2022/07/31 00:34:36;;;;;;;0.50;0.40;;;;;;;23.47;41.09;101712.91;16142458;19;131859;-59
2022/07/31 00:39:58;;;;;;;1.05;0.30;;;;;;;23.46;41.30;101709.25;16138196;19;129967;-59
2022/07/31 00:45:19;;;;;;;2.85;0.40;;;;;;;23.48;41.25;101700.63;16140229;19;130898;-59
2022/07/31 00:50:50;;;;;;;2.63;0.60;;;;;;;23.49;41.17;101705.13;16141509;19;129545;-58
2022/07/31 00:56:12;;;;;;;2.92;0.50;;;;;;;23.47;40.95;101693.38;16140961;19;129438;-60
2022/07/31 01:01:33;;;;;;;2.03;0.60;;;;;;;23.46;41.16;101683.28;16141265;19;129617;-59
2022/07/31 01:06:55;;;;;;;1.50;0.50;;;;;;;23.46;41.55;101686.09;16141919;19;129555;-61
2022/07/31 01:12:28;;;;;;;3.78;0.73;;;;;;;23.45;41.14;101676.84;16142780;19;130313;-60
2022/07/31 01:17:51;;;;;;;1.33;0.60;;;;;;;23.44;41.29;101677.13;16140403;19;130183;-60
2022/07/31 01:23:36;;;;;;;1.83;0.50;;;;;;;23.44;41.07;101680.78;16135708;19;129356;-60
2022/07/31 01:29:15;;;;;;;1.25;0.30;;;;;;;23.44;41.07;101689.16;16134650;19;130124;-60
2022/07/31 01:34:48;;;;;;;2.78;0.73;;;;;;;23.43;41.31;101692.19;16139134;19;130408;-59
2022/07/31 01:40:15;;;;;;;2.13;0.60;;;;;;;23.42;41.39;101680.19;16136499;19;129068;-59
2022/07/31 01:45:41;;;;;;;0.85;0.40;;;;;;;23.43;41.19;101686.59;16138382;19;130542;-60
2022/07/31 01:51:04;;;;;;;0.75;0.38;;;;;;;23.40;41.13;101685.19;16135714;19;129740;-60
2022/07/31 01:56:31;;;;;;;0.47;0.40;;;;;;;23.42;41.12;101696.94;16131823;19;129620;-60
2022/07/31 02:01:53;;;;;;;3.25;0.43;;;;;;;23.41;41.17;101688.81;16133290;19;129517;-60
2022/07/31 02:07:17;;;;;;;1.35;0.43;;;;;;;23.40;41.21;101682.38;16135033;19;130267;-60
2022/07/31 02:12:40;;;;;;;0.30;0.30;;;;;;;23.41;41.17;101677.63;16133270;19;128910;-60
2022/07/31 02:18:03;;;;;;;0.55;0.30;;;;;;;23.42;41.29;101673.75;16129434;19;129234;-60
2022/07/31 02:23:25;;;;;;;0.80;0.38;;;;;;;23.40;41.31;101664.78;16131651;19;130497;-60
2022/07/31 02:28:47;;;;;;;1.52;0.47;;;;;;;23.40;40.82;101664.78;16138308;19;129381;-59
2022/07/31 02:34:12;;;;;;;3.22;0.50;;;;;;;23.40;41.26;101664.78;16145692;19;130296;-60
2022/07/31 02:39:35;;;;;;;1.52;0.32;;;;;;;23.39;41.15;101665.88;16149555;19;129239;-63
2022/07/31 02:44:59;;;;;;;1.17;0.30;;;;;;;23.40;41.18;101670.38;16146303;19;130664;-59
2022/07/31 02:50:22;;;;;;;0.60;0.20;;;;;;;23.40;41.33;101670.38;16147282;19;131912;-60
2022/07/31 02:55:45;;;;;;;0.95;0.32;;;;;;;23.39;41.24;101654.72;16143927;19;129345;-59
2022/07/31 03:01:07;;;;;;;0.50;0.35;;;;;;;23.38;41.58;101641.88;16146809;19;129496;-60
2022/07/31 03:06:29;;;;;;;1.52;0.30;;;;;;;23.38;41.54;101647.47;16145970;19;128888;-60
2022/07/31 03:11:50;;;;;;;0.55;0.35;;;;;;;23.37;41.08;101643.81;16148143;19;130587;-61
2022/07/31 03:17:12;;;;;;;0.68;0.20;;;;;;;23.35;41.16;101638.50;16146614;19;130038;-60
2022/07/31 03:22:35;;;;;;;0.32;0.20;;;;;;;23.36;41.15;101628.16;16144158;19;130294;-60
2022/07/31 03:27:58;;;;;;;0.38;0.30;;;;;;;23.35;41.22;101641.28;16142466;19;129173;-60
2022/07/31 03:33:21;;;;;;;0.20;0.20;;;;;;;23.35;41.29;101635.72;16143410;19;130370;-60
2022/07/31 03:38:42;;;;;;;0.43;0.20;;;;;;;23.36;41.12;101628.16;16144279;19;130683;-71
2022/07/31 03:44:11;;;;;;;0.52;0.30;;;;;;;23.35;41.22;101641.28;16135230;19;129409;-66
2022/07/31 03:49:33;;;;;;;0.70;0.30;;;;;;;23.35;40.84;101630.13;16146702;19;130127;-67
2022/07/31 03:54:55;;;;;;;0.30;0.17;;;;;;;23.34;41.27;101631.22;16140994;19;129474;-66
2022/07/31 04:00:19;;;;;;;0.82;0.45;;;;;;;23.34;41.49;101635.97;16143325;19;130365;-69
2022/07/31 04:05:41;;;;;;;0.50;0.20;;;;;;;23.34;41.44;101633.16;16145758;19;129697;-66
2022/07/31 04:11:03;;;;;;;0.32;0.20;;;;;;;23.34;41.21;101642.41;16142248;19;129390;-70
2022/07/31 04:16:25;;;;;;;0.15;0.15;;;;;;;23.32;41.37;101644.59;16139042;19;129829;-61
2022/07/31 04:21:49;;;;;;;0.52;0.15;;;;;;;23.29;41.60;101642.31;16141690;19;130443;-63
2022/07/31 04:27:11;;;;;;;1.75;0.30;;;;;;;23.29;41.50;101647.09;16136026;19;130968;-65
2022/07/31 04:32:34;;;;;;;4.57;0.60;;;;;;;23.32;41.61;101635.41;16140863;19;129589;-64
2022/07/31 04:37:56;;;;;;;0.85;0.40;;;;;;;23.34;41.41;101645.19;16142475;19;129633;-59
2022/07/31 04:43:18;;;;;;;2.55;0.30;;;;;;;23.37;41.53;101640.19;16138094;19;129961;-58
2022/07/31 04:48:40;;;;;;;2.95;0.50;;;;;;;23.37;41.73;101640.19;16143629;19;128949;-59
2022/07/31 04:54:03;;;;;;;1.27;0.50;;;;;;;23.37;41.60;101634.59;16136120;19;129048;-59
2022/07/31 04:59:25;;;;;;;8.27;0.75;;;;;;;23.37;41.47;101629.84;16140881;19;129500;-59
2022/07/31 05:05:07;;;;;;;6.70;0.60;;;;;;;23.37;42.14;101631.81;16133206;19;129286;-59
2022/07/31 05:16:10;;;;;;;3.40;0.50;;;;;;;23.34;42.10;101634.03;16136149;19;132121;-59
2022/07/31 05:21:32;;;;;;;4.38;0.82;;;;;;;23.34;42.10;101628.44;16137375;19;129323;-59
2022/07/31 05:27:13;;;;;;;2.55;0.50;;;;;;;23.35;42.08;101624.53;16140904;19;129338;-59
2022/07/31 05:32:34;;;;;;;4.43;0.55;;;;;;;23.35;42.07;101634.84;16133814;19;129900;-59
2022/07/31 05:37:56;;;;;;;1.65;0.50;;;;;;;23.34;42.09;101625.66;16141864;19;129240;-61
2022/07/31 05:43:19;;;;;;;2.45;0.50;;;;;;;23.34;41.94;101627.56;16136635;19;129083;-60
2022/07/31 05:48:40;;;;;;;3.30;0.80;;;;;;;23.35;42.02;101640.44;16139913;19;130045;-59
2022/07/31 05:54:02;;;;;;;2.42;0.77;;;;;;;23.34;42.25;101633.16;16133228;19;129659;-59
2022/07/31 05:59:24;;;;;;;4.97;0.70;;;;;;;23.34;42.39;101636.81;16135644;19;131001;-58
2022/07/31 06:04:46;;;;;;;4.72;0.63;;;;;;;23.33;42.21;101632.34;16131052;19;129982;-59
2022/07/31 06:10:08;;;;;;;2.15;0.57;;;;;;;23.33;42.18;101623.97;16132961;19;130039;-59
2022/07/31 06:15:30;;;;;;;5.18;0.60;;;;;;;23.34;42.39;101622.00;16136492;19;129523;-58
2022/07/31 06:20:56;;;;;;;1.73;0.60;;;;;;;23.34;42.32;101630.38;16135079;19;129489;-59
2022/07/31 06:26:18;;;;;;;1.13;0.40;;;;;;;23.33;42.39;101625.88;16136780;19;128954;-59
2022/07/31 06:31:43;;;;;;;2.93;0.60;;;;;;;23.33;42.26;101626.75;16136830;19;130662;-59
2022/07/31 06:37:05;;;;;;;1.50;0.40;;;;;;;23.33;42.39;101617.50;16137812;19;129124;-59
2022/07/31 06:42:27;;;;;;;3.97;0.65;;;;;;;23.34;42.50;101625.66;16131851;19;129088;-59
2022/07/31 06:47:49;;;;;;;1.73;0.60;;;;;;;23.33;42.52;101632.34;16134652;19;129727;-59
2022/07/31 06:53:11;;;;;;;1.23;0.70;;;;;;;23.34;42.69;101639.59;16131073;19;129548;-59
2022/07/31 06:58:33;;;;;;;1.45;0.60;;;;;;;23.34;42.89;101639.59;16132840;19;128976;-59
2022/07/31 07:03:55;;;;;;;4.85;0.90;;;;;;;23.37;43.35;101626.25;16132350;19;129035;-59
2022/07/31 07:09:17;;;;;;;2.17;0.60;;;;;;;23.37;42.78;101606.69;16134526;19;129741;-59
2022/07/31 07:14:39;;;;;;;1.80;0.60;;;;;;;23.39;42.41;101601.66;16137715;19;129340;-59
2022/07/31 07:20:00;;;;;;;4.32;0.70;;;;;;;23.39;43.01;101607.25;16149624;19;130671;-59
2022/07/31 07:25:22;;;;;;;2.83;0.73;;;;;;;23.39;42.66;101610.03;16142802;19;131732;-58
2022/07/31 07:30:44;;;;;;;6.00;0.80;;;;;;;23.37;43.31;101601.09;16145253;19;129619;-58
2022/07/31 07:36:06;;;;;;;7.05;1.65;;;;;;;23.36;43.63;101603.03;16146128;19;129261;-56
2022/07/31 07:41:27;;;;;;;4.38;1.23;;;;;;;23.39;43.77;101601.66;16147023;19;129459;-58
2022/07/31 07:46:49;;;;;;;2.15;1.05;;;;;;;23.42;43.79;101596.41;16147651;19;129618;-56
2022/07/31 07:52:11;;;;;;;2.58;1.00;;;;;;;23.44;44.56;101598.94;16144767;19;130172;-60
2022/07/31 07:57:34;;;;;;;3.55;1.20;;;;;;;23.48;44.35;101589.75;16145126;19;129967;-58
2022/07/31 08:02:56;;;;;;;3.42;1.55;;;;;;;23.50;44.41;101593.13;16146355;19;130321;-57
2022/07/31 08:08:38;;;;;;;5.03;1.23;;;;;;;23.58;44.63;101602.13;16139615;19;129050;-57
2022/07/31 08:14:00;;;;;;;9.00;1.30;;;;;;;23.60;44.22;101614.78;16143608;19;128999;-59
2022/07/31 08:19:21;;;;;;;4.05;1.30;;;;;;;23.63;44.15;101611.44;16144016;19;131865;-60
2022/07/31 08:24:43;;;;;;;7.93;1.80;;;;;;;23.66;44.49;101602.53;16140741;19;129925;-57
2022/07/31 08:30:06;;;;;;;8.20;1.45;;;;;;;23.67;44.50;101595.03;16141556;19;130015;-60
2022/07/31 08:35:28;;;;;;;4.93;1.60;;;;;;;23.69;44.78;101600.34;16143736;19;130719;-60
2022/07/31 08:40:49;;;;;;;2.83;1.60;;;;;;;23.72;44.54;101594.22;16144628;19;128851;-58
2022/07/31 08:46:12;;;;;;;7.15;1.60;;;;;;;23.75;44.22;101607.66;16136766;19;130274;-59
2022/07/31 08:51:36;;;;;;;2.58;1.42;;;;;;;23.78;44.61;101609.91;16143196;19;130115;-57
2022/07/31 08:57:13;;;;;;;6.38;1.55;;;;;;;23.81;44.58;101609.38;16143411;19;129950;-59
2022/07/31 09:02:37;;;;;;;6.13;1.70;;;;;;;23.82;44.66;101605.50;16142757;19;129528;-59
2022/07/31 09:07:59;;;;;;;6.70;1.83;;;;;;;23.81;44.76;101603.78;16142168;19;129522;-60
2022/07/31 09:13:21;;;;;;;3.20;1.35;;;;;;;23.82;44.89;101578.38;16142396;19;129855;-60
2022/07/31 09:18:43;;;;;;;6.90;1.30;;;;;;;23.87;44.66;101582.31;16140140;19;128872;-59
2022/07/31 09:24:06;;;;;;;7.22;1.40;;;;;;;23.91;44.56;101587.13;16138424;19;129019;-59
2022/07/31 09:29:42;;;;;;;2.63;1.20;;;;;;;23.97;44.66;101574.88;16138613;19;129822;-53
2022/07/31 09:35:10;;;;;;;3.72;1.77;;;;;;;23.99;44.49;101570.97;16140203;19;129530;-56
2022/07/31 09:40:35;;;;;;;6.10;1.33;;;;;;;24.00;44.26;101567.09;16135933;19;129777;-56
2022/07/31 09:46:15;;;;;;;4.57;1.20;;;;;;;24.03;44.68;101578.56;16133344;19;130777;-59
2022/07/31 09:51:42;;;;;;;2.67;1.13;;;;;;;24.05;44.47;101575.50;16136549;19;129227;-59
2022/07/31 09:57:12;;;;;;;2.92;1.20;;;;;;;24.04;44.17;101569.06;16139816;19;129283;-58
2022/07/31 10:02:37;;;;;;;3.78;1.30;;;;;;;24.04;44.36;101573.81;16133044;19;129578;-57
2022/07/31 10:08:00;;;;;;;7.05;1.30;;;;;;;24.04;44.27;101584.97;16136794;19;129274;-58
2022/07/31 10:13:23;;;;;;;3.38;1.00;;;;;;;24.04;44.07;101573.81;16137477;19;130386;-58
2022/07/31 10:18:52;;;;;;;2.20;1.05;;;;;;;24.04;44.43;101576.59;16135521;19;130086;-58
2022/07/31 10:24:15;;;;;;;3.08;1.20;;;;;;;24.02;43.95;101567.63;16134347;19;129353;-58
2022/07/31 10:29:38;;;;;;;1.13;0.95;;;;;;;23.97;44.34;101569.28;16135181;19;129324;-51
2022/07/31 10:35:03;;;;;;;3.97;1.00;;;;;;;23.97;44.44;101569.28;16134569;19;129272;-53
2022/07/31 10:40:46;;;;;;;1.15;0.80;;;;;;;24.00;44.62;101562.31;16132390;19;129260;-58
2022/07/31 10:46:08;;;;;;;2.53;1.08;;;;;;;23.97;44.25;101558.13;16132250;19;132015;-58
2022/07/31 10:51:30;;;;;;;1.75;0.85;;;;;;;23.97;44.48;101554.47;16141262;19;128903;-58
2022/07/31 10:56:54;;;;;;;1.75;0.90;;;;;;;23.97;44.32;101558.13;16148120;19;130482;-58
2022/07/31 11:02:32;;;;;;;7.68;1.20;;;;;;;23.98;44.41;101556.16;16143137;19;129728;-58
2022/07/31 11:08:03;;;;;;;2.97;1.00;;;;;;;23.96;44.28;101550.84;16146330;19;129581;-58
2022/07/31 11:13:25;;;;;;;3.75;1.45;;;;;;;23.95;44.27;101548.28;16143454;19;129700;-58
2022/07/31 11:19:05;;;;;;;1.20;0.95;;;;;;;23.96;44.26;101541.59;16145707;19;129534;-58
2022/07/31 11:24:27;;;;;;;2.65;0.90;;;;;;;23.94;44.09;101539.09;16142068;19;130176;-58
2022/07/31 11:29:49;;;;;;;1.50;0.80;;;;;;;23.95;44.14;101543.56;16145927;19;129489;-58
2022/07/31 11:35:28;;;;;;;1.15;0.82;;;;;;;23.93;44.07;101545.78;16146691;19;129266;-58
2022/07/31 11:40:50;;;;;;;2.08;0.77;;;;;;;23.93;43.76;101553.34;16146800;19;129448;-58
2022/07/31 11:46:30;;;;;;;1.80;0.93;;;;;;;23.93;44.05;101544.94;16142253;19;128889;-58
2022/07/31 11:51:59;;;;;;;1.50;0.90;;;;;;;23.91;44.37;101536.00;16140299;19;131159;-58
2022/07/31 11:57:21;;;;;;;0.90;0.90;;;;;;;23.90;43.95;101546.31;16147690;19;129490;-59
2022/07/31 12:02:45;;;;;;;1.38;0.98;;;;;;;23.92;43.90;101543.25;16142253;19;129486;-57
2022/07/31 12:08:09;;;;;;;;;;;;;;;23.89;44.23;101539.03;16145740;19;129103;-57
2022/07/31 12:13:31;;;;;;;1.90;0.80;;;;;;;23.92;43.92;101532.09;16142629;19;130163;-57
2022/07/31 12:18:58;;;;;;;1.38;0.88;;;;;;;23.91;44.03;101539.63;16144475;19;129418;-58
2022/07/31 12:24:20;;;;;;;0.85;0.70;;;;;;;23.91;43.90;101531.22;16141551;19;128962;-58
2022/07/31 12:29:42;;;;;;;1.58;0.88;;;;;;;23.90;44.13;101535.13;16143226;19;129189;-57
2022/07/31 12:35:04;;;;;;;2.05;0.70;;;;;;;23.91;43.79;101524.81;16143336;19;130188;-58
2022/07/31 12:40:27;;;;;;;1.05;0.70;;;;;;;23.90;43.99;101515.56;16138530;19;129524;-58
2022/07/31 12:45:50;;;;;;;1.70;0.90;;;;;;;23.90;44.09;101509.97;16139458;19;129345;-57
2022/07/31 12:51:12;;;;;;;1.55;0.60;;;;;;;23.91;43.75;101514.47;16141421;19;130726;-56
2022/07/31 12:56:38;;;;;;;1.55;0.68;;;;;;;23.91;44.17;101516.44;16142077;19;129765;-57
2022/07/31 13:02:00;;;;;;;2.97;0.80;;;;;;;23.89;44.08;101511.09;16134828;19;129337;-57
2022/07/31 13:07:22;;;;;;;1.58;0.73;;;;;;;23.90;43.77;101509.16;16137567;19;129415;-57
2022/07/31 13:12:44;;;;;;;0.73;0.60;;;;;;;23.88;44.17;101501.03;16140818;19;130194;-57
2022/07/31 13:18:05;;;;;;;0.75;0.60;;;;;;;23.88;44.17;101501.03;16141705;19;129543;-57
2022/07/31 13:23:27;;;;;;;2.08;0.70;;;;;;;23.87;44.09;101490.97;16143442;19;129548;-57
2022/07/31 13:28:49;;;;;;;3.45;0.80;;;;;;;23.87;44.16;101479.81;16140980;19;129461;-58
2022/07/31 13:34:11;;;;;;;1.20;0.63;;;;;;;23.87;44.05;101479.81;16140681;19;129496;-56
2022/07/31 13:39:33;;;;;;;1.10;0.60;;;;;;;23.89;44.05;101466.38;16142370;19;130398;-57
2022/07/31 13:44:55;;;;;;;2.78;0.90;;;;;;;23.89;44.18;101471.97;16136595;19;129165;-57
2022/07/31 13:50:20;;;;;;;1.05;0.50;;;;;;;23.88;43.85;101461.91;16139906;19;130530;-58
2022/07/31 13:55:42;;;;;;;3.60;0.60;;;;;;;23.90;44.15;101470.03;16136121;19;128983;-57
2022/07/31 14:01:10;;;;;;;0.65;0.50;;;;;;;23.90;43.96;101468.06;16135767;19;129874;-56
2022/07/31 14:06:32;;;;;;;0.90;0.50;;;;;;;23.90;44.27;101465.28;16134140;19;129012;-58
2022/07/31 14:11:55;;;;;;;0.60;0.50;;;;;;;23.91;43.71;101466.13;16137159;19;129640;-56
2022/07/31 14:17:16;;;;;;;0.55;0.55;;;;;;;23.90;44.00;101448.50;16137222;19;130600;-57
2022/07/31 14:22:38;;;;;;;1.05;0.50;;;;;;;23.90;43.96;101450.47;16133883;19;129340;-57
2022/07/31 14:28:00;;;;;;;1.00;0.57;;;;;;;23.88;44.10;101436.75;16144261;19;129415;-57
2022/07/31 14:33:21;;;;;;;0.85;0.40;;;;;;;23.90;44.43;101445.72;16151965;19;129144;-56
2022/07/31 14:38:44;;;;;;;1.65;0.47;;;;;;;23.91;44.40;101439.00;16151039;19;129668;-55
2022/07/31 14:44:05;;;;;;;6.70;0.60;;;;;;;23.91;43.92;101441.81;16150097;19;129584;-56
2022/07/31 14:49:27;;;;;;;1.20;0.40;;;;;;;23.91;44.04;101439.00;16150083;19;129980;-56
2022/07/31 14:55:09;;;;;;;1.88;0.65;;;;;;;23.90;44.25;101444.88;16144906;19;129881;-57
2022/07/31 15:00:31;;;;;;;1.70;0.50;;;;;;;23.90;44.22;101440.13;16145395;19;130331;-58
2022/07/31 15:05:52;;;;;;;0.90;0.47;;;;;;;23.89;44.21;101444.03;16144240;19;129121;-57
2022/07/31 15:11:34;;;;;;;0.73;0.50;;;;;;;23.88;44.05;101447.94;16147449;19;130632;-59
2022/07/31 15:17:16;;;;;;;2.65;0.40;;;;;;;23.92;44.70;101449.09;16146674;19;130554;-57
2022/07/31 15:22:38;;;;;;;7.18;1.15;;;;;;;23.94;45.27;101446.88;16145723;19;131337;-58
2022/07/31 15:27:59;;;;;;;4.20;0.80;;;;;;;23.98;44.83;101447.16;16141198;19;129273;-59
2022/07/31 15:33:22;;;;;;;1.85;0.63;;;;;;;23.97;44.84;101439.88;16147598;19;129379;-59
2022/07/31 15:38:44;;;;;;;5.03;0.60;;;;;;;23.95;44.76;101442.09;16146780;19;130657;-58
2022/07/31 15:44:06;;;;;;;24.75;11.88;;;;;;;23.92;44.96;101448.25;16145319;19;130437;-59
2022/07/31 15:49:27;;;;;;;30.08;15.27;;;;;;;23.97;44.91;101451.06;16144881;19;129188;-59
2022/07/31 15:55:05;;;;;;;22.17;12.40;;;;;;;23.97;44.80;101442.69;16138849;19;129022;-59
2022/07/31 16:00:26;;;;;;;26.48;11.93;;;;;;;23.97;44.61;101445.47;16139468;19;129589;-59
2022/07/31 16:05:48;;;;;;;20.48;9.98;;;;;;;23.96;44.46;101443.78;16142003;19;130110;-60
2022/07/31 16:11:16;;;;;;;18.23;9.43;;;;;;;23.95;44.44;101431.78;16142864;19;130218;-61
2022/07/31 16:16:38;;;;;;;15.32;7.43;;;;;;;23.96;44.42;101438.19;16141970;19;129208;-64
2022/07/31 16:22:06;;;;;;;12.98;6.72;;;;;;;23.97;44.53;101434.28;16142227;19;129889;-59
2022/07/31 16:27:28;;;;;;;14.15;7.13;;;;;;;23.97;44.54;101434.28;16138192;19;129462;-62
2022/07/31 16:32:50;;;;;;;12.35;5.72;;;;;;;23.98;44.37;101430.38;16139361;19;129086;-62
2022/07/31 16:38:12;;;;;;;9.48;5.35;;;;;;;23.98;44.43;101419.22;16146438;19;130790;-62
2022/07/31 16:43:34;;;;;;;12.05;5.07;;;;;;;23.98;44.21;101427.59;16139371;19;129029;-61
2022/07/31 16:49:12;;;;;;;5.97;3.70;;;;;;;23.97;44.34;101431.50;16140421;19;130438;-60
2022/07/31 16:54:53;;;;;;;5.18;3.08;;;;;;;23.93;44.50;101436.78;16133485;19;129902;-59
2022/07/31 17:00:15;;;;;;;5.38;2.60;;;;;;;23.93;44.30;101436.78;16137747;19;131220;-59
2022/07/31 17:05:37;;;;;;;16.35;3.33;;;;;;;23.92;44.37;101437.06;16136144;19;131368;-59
2022/07/31 17:10:59;;;;;;;22.75;2.78;;;;;;;23.92;44.70;101437.91;16132783;19;130063;-61
2022/07/31 17:16:21;;;;;;;8.45;2.25;;;;;;;24.00;44.40;101444.13;16141690;19;129307;-60
2022/07/31 17:21:43;;;;;;;17.00;2.55;;;;;;;24.04;44.60;101445.22;16141176;19;129922;-58
2022/07/31 17:27:06;;;;;;;18.38;1.77;;;;;;;24.06;44.36;101451.41;16134766;19;130929;-59
2022/07/31 17:32:31;;;;;;;9.98;1.77;;;;;;;24.05;44.50;101458.09;16143592;19;129687;-58
2022/07/31 17:37:52;;;;;;;6.57;1.40;;;;;;;24.05;44.55;101460.91;16198264;19;129384;-58
2022/07/31 17:43:14;;;;;;;6.90;1.15;;;;;;;24.06;44.50;101470.97;16221376;19;129125;-57
2022/07/31 17:48:36;;;;;;;11.13;1.33;;;;;;;24.05;44.80;101466.47;16214520;19;128920;-59
2022/07/31 17:53:59;;;;;;;6.38;1.65;;;;;;;24.05;44.75;101477.66;16201687;19;129104;-58
2022/07/31 17:59:21;;;;;;;9.43;1.10;;;;;;;24.06;44.73;101484.94;16202871;19;128339;-54
2022/07/31 18:04:43;;;;;;;15.02;2.15;;;;;;;24.07;45.17;101487.44;16196528;19;129222;-58
2022/07/31 18:10:08;;;;;;;13.65;1.13;;;;;;;24.06;45.37;101487.72;16158083;19;129484;-59
2022/07/31 18:15:29;;;;;;;9.33;1.53;;;;;;;24.03;45.48;101499.44;16141445;19;129456;-53
2022/07/31 18:20:56;;;;;;;8.48;1.25;;;;;;;24.01;45.46;101491.34;16190349;19;130660;-58
2022/07/31 18:26:18;;;;;;;3.47;1.00;;;;;;;24.01;45.36;101501.66;16148995;19;129427;-59
2022/07/31 18:31:39;;;;;;;7.13;0.80;;;;;;;23.97;45.31;101507.81;16138559;19;129572;-59
2022/07/31 18:37:01;;;;;;;5.18;0.90;;;;;;;23.96;45.53;101506.13;16141126;19;132018;-58
2022/07/31 18:42:26;;;;;;;5.07;0.90;;;;;;;23.92;44.97;101504.97;16139691;19;130201;-58
2022/07/31 18:47:49;;;;;;;4.20;0.87;;;;;;;23.91;45.23;101505.25;16133832;19;130034;-59
2022/07/31 18:53:11;;;;;;;15.35;1.20;;;;;;;23.88;45.17;101514.16;16123123;19;130415;-60
2022/07/31 18:58:33;;;;;;;10.73;1.05;;;;;;;23.91;45.24;101502.47;16123508;19;129647;-58
2022/07/31 19:03:54;;;;;;;17.67;1.40;;;;;;;23.93;45.47;101509.44;16127659;19;129591;-58
2022/07/31 19:09:21;;;;;;;8.48;1.20;;;;;;;23.90;45.51;101501.59;16126798;19;130226;-58
2022/07/31 19:14:43;;;;;;;7.18;1.05;;;;;;;23.88;45.50;101506.59;16150463;19;128949;-59
2022/07/31 19:20:10;;;;;;;5.80;0.93;;;;;;;23.87;45.44;101504.09;16148786;19;130681;-59
2022/07/31 19:25:51;;;;;;;6.28;1.02;;;;;;;23.85;45.40;101507.16;16146999;19;132313;-59
2022/07/31 19:31:24;;;;;;;8.15;0.93;;;;;;;23.84;45.06;101508.28;16147860;19;129315;-58
2022/07/31 19:36:46;;;;;;;3.08;0.50;;;;;;;23.84;45.14;101525.03;16146574;19;129475;-59
2022/07/31 19:42:08;;;;;;;2.53;0.75;;;;;;;23.82;45.11;101532.84;16145446;19;131381;-59
2022/07/31 19:47:33;;;;;;;3.78;0.68;;;;;;;23.81;45.21;101547.91;16143000;19;129624;-59
2022/07/31 19:52:56;;;;;;;1.30;0.40;;;;;;;23.81;45.13;101540.41;16142479;19;130226;-59
2022/07/31 19:58:18;;;;;;;2.40;0.50;;;;;;;23.82;45.04;101549.59;16144769;19;129007;-59
2022/07/31 20:03:40;;;;;;;3.70;0.50;;;;;;;23.82;44.76;101552.41;16140736;19;129374;-59
2022/07/31 20:09:03;;;;;;;2.33;0.50;;;;;;;23.83;44.93;101565.25;16140987;19;128990;-60
2022/07/31 20:14:25;;;;;;;2.78;0.50;;;;;;;23.80;44.83;101560.19;16145025;19;129490;-60
2022/07/31 20:19:46;;;;;;;0.88;0.40;;;;;;;23.79;45.14;101564.97;16143831;19;128923;-60
2022/07/31 20:25:28;;;;;;;0.82;0.40;;;;;;;23.82;44.94;101577.53;16139600;19;130516;-67
2022/07/31 20:30:50;;;;;;;1.30;0.43;;;;;;;23.80;44.78;101571.38;16139185;19;129951;-71
2022/07/31 20:36:13;;;;;;;1.45;0.60;;;;;;;23.78;44.76;101573.59;16137691;19;129759;-70
2022/07/31 20:41:35;;;;;;;1.23;0.40;;;;;;;23.80;44.77;101571.38;16143573;19;130309;-68
2022/07/31 20:46:56;;;;;;;2.55;0.40;;;;;;;23.78;44.45;101581.97;16143196;19;130225;-63
2022/07/31 20:52:18;;;;;;;1.45;0.30;;;;;;;23.76;44.89;101585.03;16138594;19;129021;-58
2022/07/31 20:57:40;;;;;;;4.80;0.20;;;;;;;23.76;45.01;101584.19;16139425;19;130633;-58
2022/07/31 21:03:01;;;;;;;0.93;0.30;;;;;;;23.75;44.94;101597.31;16136700;19;129268;-59
2022/07/31 21:08:24;;;;;;;2.05;0.40;;;;;;;23.72;44.72;101595.06;16134959;19;128978;-59
2022/07/31 21:13:45;;;;;;;1.42;0.47;;;;;;;23.74;44.84;101586.44;16136781;19;129289;-58
2022/07/31 21:19:08;;;;;;;2.20;0.43;;;;;;;23.76;44.88;101595.34;16137945;19;129507;-59
2022/07/31 21:24:30;;;;;;;0.63;0.30;;;;;;;23.75;44.78;101593.69;16137495;19;129511;-59
2022/07/31 21:29:52;;;;;;;0.55;0.32;;;;;;;23.75;44.63;101590.91;16132924;19;130816;-59
2022/07/31 21:35:18;;;;;;;0.80;0.40;;;;;;;23.76;44.59;101590.63;16136745;19;129408;-59
2022/07/31 21:40:58;;;;;;;1.10;0.50;;;;;;;23.76;44.62;101589.78;16138034;19;129498;-60
2022/07/31 21:46:21;;;;;;;0.10;0.10;;;;;;;23.77;44.79;101597.03;16136108;19;130391;-61
2022/07/31 21:51:44;;;;;;;2.00;0.40;;;;;;;23.74;44.57;101592.84;16134849;19;129376;-60
2022/07/31 21:57:06;;;;;;;0.20;0.20;;;;;;;23.75;44.40;101591.72;16135731;19;129361;-59
2022/07/31 22:02:31;;;;;;;0.52;0.30;;;;;;;23.75;44.71;101593.69;16136639;19;130020;-57
2022/07/31 22:07:52;;;;;;;0.30;0.20;;;;;;;23.72;44.86;101594.22;16132266;19;129561;-58
2022/07/31 22:13:14;;;;;;;0.40;0.20;;;;;;;23.73;44.60;101593.13;16136777;19;130230;-57
2022/07/31 22:18:36;;;;;;;0.20;0.20;;;;;;;23.72;44.47;101591.44;16134603;19;129410;-59
2022/07/31 22:23:59;;;;;;;0.40;0.20;;;;;;;23.73;44.54;101595.91;16134330;19;129366;-59
2022/07/31 22:29:20;;;;;;;0.20;0.10;;;;;;;23.71;44.52;101593.38;16127887;19;130324;-59
2022/07/31 22:34:42;;;;;;;0.20;0.20;;;;;;;23.70;44.59;101591.69;16137016;19;129545;-60
2022/07/31 22:40:07;;;;;;;0.90;0.20;;;;;;;23.70;44.74;101602.03;16135452;19;130226;-57
2022/07/31 22:45:29;;;;;;;0.20;0.10;;;;;;;23.70;44.60;101600.06;16136083;19;129471;-58
2022/07/31 22:50:50;;;;;;;0.38;0.20;;;;;;;23.71;44.47;101609.28;16147894;19;129869;-58
2022/07/31 22:56:12;;;;;;;0.10;0.10;;;;;;;23.70;44.32;101607.59;16148160;19;129476;-59
2022/07/31 23:01:34;;;;;;;1.17;0.20;;;;;;;23.70;44.49;101607.59;16146564;19;129687;-57
2022/07/31 23:06:56;;;;;;;0.30;0.10;;;;;;;23.69;44.54;101611.50;16144933;19;129907;-59
2022/07/31 23:12:17;;;;;;;0.17;0.10;;;;;;;23.69;44.17;101611.50;16147564;19;130595;-59
2022/07/31 23:17:39;;;;;;;1.15;0.25;;;;;;;23.67;44.55;101609.00;16149451;19;129270;-59
2022/07/31 23:23:01;;;;;;;0.73;0.17;;;;;;;23.66;44.47;101608.13;16147780;19;129824;-64
2022/07/31 23:28:23;;;;;;;2.42;0.40;;;;;;;23.66;44.48;101602.53;16144223;19;129127;-58
2022/07/31 23:33:45;;;;;;;0.30;0.20;;;;;;;23.66;44.35;101608.13;16148618;19;129582;-59
2022/07/31 23:39:07;;;;;;;0.50;0.10;;;;;;;23.66;44.52;101608.13;16146561;19;131087;-57
2022/07/31 23:44:30;;;;;;;0.10;0.10;;;;;;;23.66;44.34;101608.13;16145172;19;131068;-57
2022/07/31 23:50:02;;;;;;;0.45;0.10;;;;;;;23.65;44.35;101609.22;16143660;19;129798;-57
2022/07/31 23:55:24;;;;;;;2.55;0.20;;;;;;;23.65;44.46;101600.03;16146230;19;130408;-59
